Time;durP1;ratioP1;P1;durP2;ratioP2;P2;SDS_P1;SDS_P2;PMS_P1;PMS_P2;Temp;Humidity;BMP_temperature;BMP_pressure;BME280_temperature;BME280_humidity;BME280_pressure;Samples;Min_cycle;Max_cycle;Signal;HPM_P1;HPM_P2
2023/03/12 00:02:03;;;;;;;1.23;0.93;;;;;;;1.06;55.14;97304.72;6238823;28;20233;-74
2023/03/12 00:05:06;;;;;;;1.97;1.23;;;;;;;1.06;54.67;97317.81;6238570;28;20322;-74
2023/03/12 00:08:09;;;;;;;1.50;0.93;;;;;;;1.03;54.93;97321.66;6239475;28;20365;-74
2023/03/12 00:11:16;;;;;;;1.57;1.17;;;;;;;0.95;55.24;97320.97;6236020;28;20259;-75
2023/03/12 00:14:19;;;;;;;2.13;1.23;;;;;;;0.86;55.03;97335.22;6226884;28;20224;-73
2023/03/12 00:17:21;;;;;;;1.80;1.23;;;;;;;0.76;55.52;97343.41;6242832;28;20241;-73
2023/03/12 00:20:23;;;;;;;1.30;1.07;;;;;;;0.74;55.45;97337.53;6241210;28;20547;-73
2023/03/12 00:23:26;;;;;;;1.67;1.10;;;;;;;0.69;55.22;97343.34;6240549;28;20227;-74
2023/03/12 00:26:28;;;;;;;1.50;1.20;;;;;;;0.33;56.09;97292.78;6238259;28;20318;-73
2023/03/12 00:29:30;;;;;;;1.83;1.00;;;;;;;0.58;56.21;97350.88;6243134;28;20304;-73
2023/03/12 00:32:32;;;;;;;1.50;1.20;;;;;;;0.52;56.65;97348.00;6239866;28;20326;-74
2023/03/12 00:35:37;;;;;;;1.70;1.10;;;;;;;0.45;56.64;97331.41;6243509;28;20754;-74
2023/03/12 00:38:39;;;;;;;1.23;1.07;;;;;;;0.54;56.06;97344.38;6241458;28;20701;-73
2023/03/12 00:41:41;;;;;;;4.23;1.40;;;;;;;0.28;56.54;97311.66;6221491;28;20314;-73
2023/03/12 00:44:43;;;;;;;2.00;1.23;;;;;;;0.53;56.02;97346.19;6239266;28;20268;-74
2023/03/12 00:47:46;;;;;;;2.10;1.33;;;;;;;0.46;57.42;97347.94;6239987;28;20754;-74
2023/03/12 00:50:48;;;;;;;3.13;1.40;;;;;;;0.45;56.99;97346.34;6234054;28;20227;-74
2023/03/12 00:53:50;;;;;;;4.93;1.50;;;;;;;0.38;57.75;97351.47;6242647;28;20223;-74
2023/03/12 00:56:52;;;;;;;2.23;1.23;;;;;;;0.32;57.55;97333.06;6220893;28;20227;-73
2023/03/12 00:59:54;;;;;;;1.60;1.10;;;;;;;-0.07;57.29;97284.50;6237728;28;20718;-73
2023/03/12 01:02:56;;;;;;;2.43;1.43;;;;;;;0.23;57.87;97341.03;6237770;28;20773;-74
2023/03/12 01:05:59;;;;;;;1.23;0.97;;;;;;;0.29;57.53;97359.63;6242521;28;20223;-73
2023/03/12 01:09:04;;;;;;;1.80;1.20;;;;;;;0.23;57.99;97351.53;6239257;28;20888;-73
2023/03/12 01:12:06;;;;;;;2.20;1.30;;;;;;;0.20;58.14;97353.72;6246585;28;20323;-73
2023/03/12 01:15:12;;;;;;;1.37;1.10;;;;;;;0.05;57.79;97316.25;6242131;28;20219;-74
2023/03/12 01:18:14;;;;;;;3.57;1.57;;;;;;;0.21;58.75;97353.53;6231896;28;20621;-73
2023/03/12 01:21:16;;;;;;;1.53;1.10;;;;;;;0.26;58.03;97358.22;6240978;28;20224;-73
2023/03/12 01:24:18;;;;;;;3.27;1.47;;;;;;;0.23;58.07;97354.13;6238023;28;20668;-74
2023/03/12 01:27:20;;;;;;;2.10;1.23;;;;;;;0.32;58.28;97354.03;6246463;28;20230;-73
2023/03/12 01:30:22;;;;;;;2.20;1.50;;;;;;;0.38;57.97;97355.91;6239071;28;20258;-73
2023/03/12 01:33:24;;;;;;;1.30;1.13;;;;;;;0.41;57.98;97361.59;6239082;28;20771;-74
2023/03/12 01:36:29;;;;;;;1.77;1.20;;;;;;;0.34;57.85;97357.28;6242249;28;20238;-74
2023/03/12 01:39:31;;;;;;;1.87;1.00;;;;;;;0.47;57.54;97386.25;6240566;28;20993;-74
2023/03/12 01:42:33;;;;;;;2.87;1.50;;;;;;;0.47;57.85;97381.81;6240503;28;20276;-73
2023/03/12 01:46:20;;;;;;;3.37;1.40;;;;;;;0.59;57.21;97387.41;6243111;28;20591;-73
2023/03/12 01:49:28;;;;;;;1.40;1.00;;;;;;;0.68;57.65;97388.06;6234431;28;20590;-73
2023/03/12 01:52:35;;;;;;;1.70;1.30;;;;;;;0.73;57.30;97381.28;6236621;28;20227;-72
2023/03/12 01:55:39;;;;;;;2.60;1.30;;;;;;;0.73;57.15;97381.28;6237324;28;20228;-73
2023/03/12 01:58:46;;;;;;;4.07;1.77;;;;;;;0.71;57.58;97372.78;6239848;28;20239;-72
2023/03/12 02:01:49;;;;;;;1.60;1.07;;;;;;;0.62;57.13;97349.50;6239323;28;20251;-73
2023/03/12 02:05:00;;;;;;;2.20;1.40;;;;;;;0.64;58.18;97361.44;6241574;28;20235;-72
2023/03/12 02:08:03;;;;;;;2.07;1.20;;;;;;;0.59;58.28;97358.56;6245490;28;20230;-73
2023/03/12 02:11:05;;;;;;;2.40;1.13;;;;;;;0.50;57.71;97362.31;6228555;28;21192;-74
2023/03/12 02:14:08;;;;;;;3.30;1.60;;;;;;;0.36;57.70;97371.81;6246408;28;20313;-71
2023/03/12 02:17:11;;;;;;;1.83;1.43;;;;;;;0.33;58.10;97379.22;6228971;28;20314;-69
2023/03/12 02:20:21;;;;;;;2.70;1.17;;;;;;;0.05;58.16;97340.66;6246384;28;20228;-70
2023/03/12 02:23:33;;;;;;;1.43;1.30;;;;;;;0.25;57.70;97372.31;6241255;28;20677;-69
2023/03/12 02:26:38;;;;;;;2.07;1.30;;;;;;;0.00;57.56;97337.78;6226778;28;20300;-70
2023/03/12 02:29:43;;;;;;;1.83;1.23;;;;;;;0.01;57.60;97352.47;6237234;28;20231;-71
2023/03/12 02:32:47;;;;;;;1.27;1.13;;;;;;;0.10;57.42;97393.28;6243707;28;20778;-69
2023/03/12 02:35:51;;;;;;;1.77;1.47;;;;;;;-0.10;57.99;97379.09;6244444;28;20617;-70
2023/03/12 02:38:55;;;;;;;2.00;1.20;;;;;;;-0.15;58.12;97379.66;6243168;28;20216;-70
2023/03/12 02:41:58;;;;;;;4.10;2.17;;;;;;;-0.31;57.32;97338.78;6241727;28;20227;-69
2023/03/12 02:45:02;;;;;;;2.63;1.40;;;;;;;0.02;57.80;97388.13;6241383;28;20686;-71
2023/03/12 02:48:07;;;;;;;2.87;1.20;;;;;;;0.03;57.93;97397.63;6237089;28;20239;-69
2023/03/12 02:51:09;;;;;;;2.80;1.73;;;;;;;-0.05;58.06;97395.06;6242505;28;20273;-69
2023/03/12 02:54:14;;;;;;;3.87;1.40;;;;;;;-0.01;57.82;97398.97;6249450;28;20947;-70
2023/03/12 02:57:16;;;;;;;2.70;1.43;;;;;;;-0.01;58.22;97412.88;6242502;28;20212;-69
2023/03/12 03:00:19;;;;;;;1.50;1.20;;;;;;;-0.30;58.10;97370.97;6244426;28;20690;-69
2023/03/12 03:03:25;;;;;;;1.43;1.33;;;;;;;-0.06;58.33;97419.63;6241877;28;20236;-69
2023/03/12 03:06:33;;;;;;;2.60;1.27;;;;;;;-0.12;58.13;97415.94;6244300;28;20292;-69
2023/03/12 03:09:35;;;;;;;3.10;1.33;;;;;;;-0.33;58.18;97381.84;6244016;28;20223;-69
2023/03/12 03:12:38;;;;;;;2.70;1.53;;;;;;;-0.13;58.15;97411.72;6239041;28;20255;-69
2023/03/12 03:15:41;;;;;;;4.47;1.20;;;;;;;-0.14;57.81;97422.38;6240605;28;20227;-70
2023/03/12 03:18:43;;;;;;;5.90;1.83;;;;;;;-0.39;57.95;97396.44;6242346;28;20699;-70
2023/03/12 03:21:46;;;;;;;2.87;1.50;;;;;;;-0.30;58.24;97429.38;6243440;28;20243;-70
2023/03/12 03:24:48;;;;;;;1.37;1.00;;;;;;;-0.42;57.92;97416.94;6239531;28;20719;-70
2023/03/12 03:27:50;;;;;;;2.30;1.27;;;;;;;-0.85;59.15;97385.25;6246357;28;20241;-70
2023/03/12 03:30:53;;;;;;;2.63;1.83;;;;;;;-0.59;59.66;97429.31;6223527;28;20231;-69
2023/03/12 03:33:56;;;;;;;1.93;1.40;;;;;;;-0.58;59.72;97430.97;6240840;28;20234;-70
2023/03/12 03:36:58;;;;;;;1.30;1.10;;;;;;;-0.67;59.78;97430.22;6238967;28;20613;-70
2023/03/12 03:40:00;;;;;;;2.57;1.10;;;;;;;-0.64;59.98;97442.13;6231935;28;20232;-70
2023/03/12 03:43:02;;;;;;;1.80;0.90;;;;;;;-0.65;59.68;97433.47;6239748;28;20226;-69
2023/03/12 03:46:05;;;;;;;3.20;1.37;;;;;;;-0.66;59.69;97444.94;6239902;28;20594;-70
2023/03/12 03:49:23;;;;;;;2.10;1.40;;;;;;;-0.76;59.90;97446.97;6240771;28;20246;-70
2023/03/12 03:52:25;;;;;;;1.70;1.07;;;;;;;-1.05;59.44;97401.44;6243762;28;20600;-69
2023/03/12 03:55:28;;;;;;;1.40;1.00;;;;;;;-0.77;59.78;97452.38;6242961;28;20234;-70
2023/03/12 03:58:30;;;;;;;1.57;1.13;;;;;;;-0.82;58.92;97455.53;6241802;28;20224;-70
2023/03/12 04:01:32;;;;;;;1.73;1.47;;;;;;;-0.85;59.43;97455.88;6239501;28;20759;-71
2023/03/12 04:04:35;;;;;;;1.97;1.50;;;;;;;-1.01;59.20;97446.34;6244851;28;20718;-70
2023/03/12 04:07:38;;;;;;;1.40;1.20;;;;;;;-1.04;59.96;97446.69;6235754;28;20918;-70
2023/03/12 04:10:40;;;;;;;1.50;1.20;;;;;;;-1.27;60.04;97415.34;6246186;28;20233;-70
2023/03/12 04:13:43;;;;;;;2.63;1.50;;;;;;;-1.16;60.23;97453.31;6241528;28;20266;-70
2023/03/12 04:16:47;;;;;;;1.80;1.30;;;;;;;-1.11;60.31;97469.28;6223649;28;20721;-70
2023/03/12 04:19:49;;;;;;;2.03;1.30;;;;;;;-1.13;60.13;97473.88;6244972;28;20288;-70
2023/03/12 04:22:51;;;;;;;1.67;1.10;;;;;;;-1.17;60.26;97470.00;6242522;28;20910;-70
2023/03/12 04:25:53;;;;;;;1.47;1.10;;;;;;;-1.49;60.89;97448.25;6240146;28;20236;-70
2023/03/12 04:28:56;;;;;;;2.13;1.50;;;;;;;-1.41;60.85;97484.00;6238775;28;20234;-70
2023/03/12 04:31:58;;;;;;;2.03;1.40;;;;;;;-1.54;61.16;97487.16;6238361;28;20230;-70
2023/03/12 04:35:00;;;;;;;2.57;1.50;;;;;;;-1.59;61.60;97487.66;6238148;28;20228;-70
2023/03/12 04:38:03;;;;;;;2.93;1.40;;;;;;;-1.58;61.51;97493.69;6248522;28;20252;-73
2023/03/12 04:41:10;;;;;;;2.10;1.33;;;;;;;-1.84;61.80;97466.03;6239315;28;20258;-73
2023/03/12 04:44:18;;;;;;;1.20;1.10;;;;;;;-1.66;61.87;97497.16;6236452;28;20247;-73
2023/03/12 04:47:20;;;;;;;1.57;1.30;;;;;;;-1.64;61.72;97502.22;6244443;28;20231;-72
2023/03/12 04:50:23;;;;;;;2.23;1.33;;;;;;;-1.65;61.62;97505.81;6242276;28;20227;-72
2023/03/12 04:53:26;;;;;;;1.20;1.10;;;;;;;-1.66;61.43;97504.19;6220814;28;20224;-71
2023/03/12 04:56:29;;;;;;;2.13;1.13;;;;;;;-1.85;61.90;97485.31;6242521;28;20227;-72
2023/03/12 04:59:31;;;;;;;2.17;1.40;;;;;;;-1.86;61.67;97496.75;6238972;28;20258;-73
2023/03/12 05:02:35;;;;;;;1.30;1.10;;;;;;;-1.90;62.49;97513.72;6239853;28;20679;-73
2023/03/12 05:05:37;;;;;;;4.10;1.40;;;;;;;-1.84;61.97;97512.22;6239195;28;20231;-73
2023/03/12 05:08:39;;;;;;;2.30;1.37;;;;;;;-2.10;61.77;97466.28;6238049;28;20247;-72
2023/03/12 05:11:41;;;;;;;3.93;1.10;;;;;;;-1.79;61.91;97520.38;6243168;28;20231;-72
2023/03/12 05:14:45;;;;;;;1.50;1.07;;;;;;;-1.86;62.18;97519.41;6239487;28;20369;-73
2023/03/12 05:17:48;;;;;;;1.97;1.03;;;;;;;-1.87;62.31;97526.44;6229759;28;20236;-73
2023/03/12 05:21:01;;;;;;;2.77;1.50;;;;;;;-1.91;62.12;97527.75;6240115;28;20694;-73
2023/03/12 05:24:04;;;;;;;1.40;1.10;;;;;;;-2.00;61.70;97512.28;6248471;28;20231;-72
2023/03/12 05:27:07;;;;;;;1.97;1.37;;;;;;;-2.04;61.70;97503.13;6240002;28;20638;-73
2023/03/12 05:30:10;;;;;;;1.50;1.20;;;;;;;-1.86;61.87;97520.22;6236252;28;20549;-73
2023/03/12 05:33:12;;;;;;;1.40;1.00;;;;;;;-2.10;61.60;97491.56;6233506;28;20222;-72
2023/03/12 05:36:15;;;;;;;1.50;1.10;;;;;;;-2.00;61.89;97512.28;6237567;28;20280;-72
2023/03/12 05:39:19;;;;;;;1.43;1.27;;;;;;;-1.87;62.27;97534.28;6225987;28;20219;-73
2023/03/12 05:42:23;;;;;;;2.57;1.20;;;;;;;-1.96;61.70;97539.69;6242590;28;20231;-73
2023/03/12 05:45:26;;;;;;;2.27;1.40;;;;;;;-1.85;62.25;97552.38;6247254;28;20226;-73
2023/03/12 05:48:31;;;;;;;1.07;0.97;;;;;;;-1.83;61.99;97559.03;6240977;28;20710;-72
2023/03/12 05:51:33;;;;;;;3.47;1.43;;;;;;;-1.87;62.00;97544.72;6242951;28;20233;-73
2023/03/12 05:54:35;;;;;;;1.50;1.27;;;;;;;-1.70;62.01;97565.56;6242713;28;20644;-73
2023/03/12 05:57:39;;;;;;;3.30;1.23;;;;;;;-1.99;62.10;97509.50;6242381;28;20232;-72
2023/03/12 06:00:43;;;;;;;1.70;1.13;;;;;;;-1.91;62.28;97514.69;6242503;28;20231;-73
2023/03/12 06:03:47;;;;;;;1.87;1.23;;;;;;;-1.77;62.57;97533.25;6241338;28;20227;-73
2023/03/12 06:06:49;;;;;;;2.43;1.20;;;;;;;-1.57;63.42;97571.09;6241105;28;20247;-73
2023/03/12 06:09:51;;;;;;;1.43;1.30;;;;;;;-1.68;62.16;97553.13;6242623;28;20281;-72
2023/03/12 06:12:53;;;;;;;3.03;1.80;;;;;;;-1.21;61.83;97574.06;6239939;28;20212;-73
2023/03/12 06:16:05;;;;;;;1.83;1.47;;;;;;;-0.95;60.28;97576.38;6242185;28;20219;-74
2023/03/12 06:19:12;;;;;;;3.00;1.57;;;;;;;-0.79;60.09;97570.22;6246610;28;20326;-74
2023/03/12 06:22:24;;;;;;;2.57;1.40;;;;;;;-0.61;60.35;97583.03;6250505;28;20284;-74
2023/03/12 06:25:26;;;;;;;2.23;1.53;;;;;;;-0.63;60.44;97579.81;6243441;28;20231;-74
2023/03/12 06:28:29;;;;;;;1.67;1.13;;;;;;;-0.89;60.41;97536.44;6238455;28;20239;-74
2023/03/12 06:31:31;;;;;;;1.33;1.13;;;;;;;-0.52;60.38;97590.66;6237755;28;20222;-73
2023/03/12 06:34:34;;;;;;;1.87;1.53;;;;;;;-0.64;60.13;97552.00;6241647;28;20641;-74
2023/03/12 06:37:36;;;;;;;2.43;1.40;;;;;;;-0.46;60.67;97591.78;6246787;28;20231;-73
2023/03/12 06:40:38;;;;;;;2.33;1.30;;;;;;;-0.73;60.95;97558.28;6241470;28;20227;-73
2023/03/12 06:43:42;;;;;;;1.53;1.27;;;;;;;-0.50;61.35;97594.91;6246020;28;20278;-73
2023/03/12 06:46:44;;;;;;;3.43;2.03;;;;;;;-0.37;60.91;97595.97;6242989;28;20652;-73
2023/03/12 06:49:47;;;;;;;2.00;1.80;;;;;;;-0.18;60.15;97591.25;6245487;28;20227;-72
2023/03/12 06:52:49;;;;;;;2.33;1.47;;;;;;;-0.07;60.52;97604.72;6241576;28;20368;-73
2023/03/12 06:55:51;;;;;;;2.97;1.87;;;;;;;0.13;59.32;97609.47;6244530;28;20232;-72
2023/03/12 06:58:54;;;;;;;2.27;1.80;;;;;;;0.29;59.18;97605.88;6245587;28;20235;-73
2023/03/12 07:01:56;;;;;;;3.77;2.10;;;;;;;0.57;57.08;97608.72;6242831;28;20327;-73
2023/03/12 07:04:58;;;;;;;5.10;2.20;;;;;;;0.81;56.61;97611.09;6243015;28;20230;-73
2023/03/12 07:08:00;;;;;;;3.77;2.30;;;;;;;0.76;55.70;97590.66;6238991;28;20224;-74
2023/03/12 07:11:02;;;;;;;3.30;1.97;;;;;;;0.72;54.71;97578.91;6231542;28;20262;-74
2023/03/12 07:14:04;;;;;;;3.37;1.77;;;;;;;1.06;53.85;97608.97;6241816;28;20856;-74
2023/03/12 07:17:06;;;;;;;4.07;2.20;;;;;;;1.06;54.22;97610.78;6241980;28;20220;-74
2023/03/12 07:20:09;;;;;;;4.30;1.80;;;;;;;1.18;53.54;97607.53;6242964;28;20292;-74
2023/03/12 07:23:12;;;;;;;5.27;2.13;;;;;;;1.18;53.51;97602.28;6238734;28;20642;-75
2023/03/12 07:26:14;;;;;;;2.80;1.67;;;;;;;1.31;53.67;97616.53;6242494;28;20772;-74
2023/03/12 07:29:16;;;;;;;2.50;2.00;;;;;;;1.33;53.75;97614.53;6245545;28;20326;-74
2023/03/12 07:32:19;;;;;;;4.53;1.97;;;;;;;1.43;54.14;97615.88;6243392;28;20329;-74
2023/03/12 07:35:22;;;;;;;2.70;1.60;;;;;;;1.38;52.13;97609.53;6244042;28;20224;-75
2023/03/12 07:38:25;;;;;;;5.10;1.90;;;;;;;1.34;53.07;97597.81;6240442;28;20240;-75
2023/03/12 07:41:27;;;;;;;1.97;1.43;;;;;;;1.69;51.68;97628.47;6240894;28;20609;-74
2023/03/12 07:44:30;;;;;;;4.60;1.60;;;;;;;1.84;50.93;97624.97;6246806;28;20235;-74
2023/03/12 07:47:32;;;;;;;2.47;1.57;;;;;;;1.94;49.61;97610.53;6243061;28;20305;-74
2023/03/12 07:50:35;;;;;;;2.87;1.40;;;;;;;2.21;48.59;97629.13;6239995;28;20230;-75
2023/03/12 07:53:37;;;;;;;3.43;1.63;;;;;;;2.13;48.41;97600.38;6237709;28;20227;-74
2023/03/12 07:56:39;;;;;;;1.97;1.37;;;;;;;2.68;47.29;97628.47;6223102;28;20244;-73
2023/03/12 07:59:41;;;;;;;2.00;1.70;;;;;;;3.17;45.15;97627.53;6238236;28;20314;-73
2023/03/12 08:02:44;;;;;;;2.30;1.50;;;;;;;3.33;44.12;97613.22;6240546;28;20673;-74
2023/03/12 08:05:58;;;;;;;7.57;1.77;;;;;;;5.90;39.66;97619.16;6239195;28;20286;-74
2023/03/12 08:09:01;;;;;;;2.77;1.33;;;;;;;9.53;31.86;97613.69;6241445;28;20788;-74
2023/03/12 08:12:04;;;;;;;2.57;1.50;;;;;;;11.84;28.77;97622.28;6220494;28;20206;-74
2023/03/12 08:15:09;;;;;;;2.50;1.40;;;;;;;14.29;24.22;97629.06;6238274;28;20630;-75
2023/03/12 08:18:11;;;;;;;2.70;1.60;;;;;;;15.32;22.96;97603.72;6244814;28;20353;-74
2023/03/12 08:21:15;;;;;;;2.73;1.67;;;;;;;16.95;20.07;97594.63;6246212;28;20214;-76
2023/03/12 08:24:18;;;;;;;1.47;1.37;;;;;;;16.40;21.27;97628.97;6237521;28;20222;-74
2023/03/12 08:27:20;;;;;;;2.23;1.50;;;;;;;17.33;20.56;97625.16;6243110;28;20241;-74
2023/03/12 08:30:22;;;;;;;2.20;1.27;;;;;;;18.35;18.86;97620.34;6243016;28;20304;-75
2023/03/12 08:33:25;;;;;;;2.67;1.50;;;;;;;16.96;20.34;97626.63;6241481;28;20227;-76
2023/03/12 08:36:27;;;;;;;1.97;1.30;;;;;;;17.83;19.76;97601.41;6243966;28;20234;-75
2023/03/12 08:39:30;;;;;;;1.87;1.07;;;;;;;19.04;18.53;97632.97;6241325;28;20231;-76
2023/03/12 08:42:32;;;;;;;2.03;1.47;;;;;;;17.90;19.28;97626.09;6242170;28;20234;-76
2023/03/12 08:45:37;;;;;;;3.37;1.43;;;;;;;17.46;18.90;97632.56;6239042;28;20777;-75
2023/03/12 08:48:40;;;;;;;3.17;1.73;;;;;;;17.42;19.79;97630.72;6235209;28;20278;-75
2023/03/12 08:51:43;;;;;;;4.30;1.60;;;;;;;15.70;21.48;97632.59;6241288;28;20246;-76
2023/03/12 08:54:45;;;;;;;2.13;1.43;;;;;;;13.73;22.72;97628.94;6241475;28;20219;-75
2023/03/12 08:57:47;;;;;;;3.23;1.50;;;;;;;11.99;26.03;97611.75;6245945;28;20267;-76
2023/03/12 09:00:51;;;;;;;2.00;1.37;;;;;;;10.37;27.79;97621.09;6228038;28;20301;-75
2023/03/12 09:03:54;;;;;;;2.17;1.80;;;;;;;8.52;30.61;97639.69;6237126;28;20232;-75
2023/03/12 09:06:56;;;;;;;4.87;2.27;;;;;;;7.99;31.98;97646.59;6237022;28;20258;-76
2023/03/12 09:09:58;;;;;;;2.37;1.70;;;;;;;7.83;32.47;97628.66;6237931;28;20235;-75
2023/03/12 09:13:01;;;;;;;2.40;1.67;;;;;;;8.11;31.63;97649.28;6239763;28;20246;-75
2023/03/12 09:16:05;;;;;;;3.13;1.60;;;;;;;7.96;32.77;97644.38;6237792;28;20257;-75
2023/03/12 09:19:08;;;;;;;2.10;1.60;;;;;;;7.44;33.53;97604.31;6249104;28;20231;-75
2023/03/12 09:22:11;;;;;;;2.43;1.80;;;;;;;7.55;34.34;97639.03;6243882;28;20239;-75
2023/03/12 09:25:13;;;;;;;2.67;1.70;;;;;;;7.74;33.82;97635.31;6245536;28;20238;-76
2023/03/12 09:28:16;;;;;;;1.90;1.50;;;;;;;7.99;33.27;97641.28;6246564;28;20240;-75
2023/03/12 09:31:19;;;;;;;3.87;1.57;;;;;;;7.76;33.38;97646.50;6246085;28;20239;-75
2023/03/12 09:34:25;;;;;;;2.93;1.90;;;;;;;8.02;33.64;97645.31;6239508;28;20364;-75
2023/03/12 09:37:28;;;;;;;4.20;1.40;;;;;;;7.36;33.41;97622.34;6248414;28;20232;-75
2023/03/12 09:40:32;;;;;;;4.17;2.10;;;;;;;7.42;33.74;97622.25;6248068;28;20333;-75
2023/03/12 09:43:45;;;;;;;4.17;2.23;;;;;;;7.53;34.98;97638.44;6229935;28;20749;-74
2023/03/12 09:46:56;;;;;;;2.70;1.63;;;;;;;8.14;34.30;97632.09;6245488;28;20230;-75
2023/03/12 09:50:14;;;;;;;3.10;1.40;;;;;;;8.29;32.53;97624.50;6239553;28;20767;-76
2023/03/12 09:53:47;;;;;;;2.47;1.63;;;;;;;8.32;32.13;97628.53;6250395;28;20604;-74
2023/03/12 09:56:54;;;;;;;3.10;1.53;;;;;;;8.61;31.95;97621.56;6245066;28;20314;-74
2023/03/12 09:59:56;;;;;;;2.40;1.40;;;;;;;9.12;31.75;97612.88;6244237;28;20342;-76
2023/03/12 10:03:18;;;;;;;1.57;1.30;;;;;;;9.16;30.99;97619.34;6240952;28;20229;-74
2023/03/12 10:06:23;;;;;;;2.43;1.53;;;;;;;9.21;30.57;97597.38;6246451;28;20243;-74
2023/03/12 10:09:36;;;;;;;2.60;1.80;;;;;;;9.14;31.04;97636.56;6243721;28;20277;-76
2023/03/12 10:13:10;;;;;;;3.87;1.77;;;;;;;9.01;31.41;97619.84;6246379;28;20226;-75
2023/03/12 10:16:30;;;;;;;5.23;1.87;;;;;;;9.62;30.64;97622.94;6241582;28;20235;-76
2023/03/12 10:19:50;;;;;;;2.97;1.70;;;;;;;9.86;30.10;97625.50;6244118;28;20317;-76
2023/03/12 10:22:55;;;;;;;2.63;1.57;;;;;;;8.59;31.00;97512.94;6247052;28;20784;-76
2023/03/12 10:26:10;;;;;;;3.30;1.77;;;;;;;9.41;30.89;97618.22;6242287;28;20235;-75
2023/03/12 10:29:19;;;;;;;2.40;1.77;;;;;;;9.12;31.13;97625.38;6243515;28;20718;-75
2023/03/12 10:32:36;;;;;;;3.10;2.07;;;;;;;9.75;29.96;97620.00;6245972;28;20235;-76
2023/03/12 10:35:39;;;;;;;2.43;2.20;;;;;;;9.97;29.95;97614.78;6243971;28;20227;-75
2023/03/12 10:38:41;;;;;;;2.23;1.80;;;;;;;9.94;29.89;97620.59;6242160;28;20228;-76
2023/03/12 10:41:46;;;;;;;2.03;1.80;;;;;;;10.25;29.35;97567.91;6238678;28;20594;-75
2023/03/12 10:44:51;;;;;;;2.87;1.90;;;;;;;10.82;28.10;97595.13;6242167;28;20695;-76
2023/03/12 10:48:01;;;;;;;3.27;2.10;;;;;;;10.67;29.79;97602.91;6225496;28;20315;-76
2023/03/12 10:51:12;;;;;;;2.60;2.40;;;;;;;10.46;28.66;97598.31;6243990;28;20705;-76
2023/03/12 10:54:26;;;;;;;4.23;2.47;;;;;;;10.86;27.89;97598.13;6240821;28;20252;-76
2023/03/12 10:57:39;;;;;;;4.47;2.60;;;;;;;10.41;28.30;97583.06;6245463;28;20355;-76
2023/03/12 11:00:57;;;;;;;2.47;2.00;;;;;;;10.47;28.40;97602.59;6242108;28;20708;-76
2023/03/12 11:04:18;;;;;;;2.50;2.23;;;;;;;9.47;30.09;97556.97;6227400;28;20238;-76
2023/03/12 11:07:26;;;;;;;4.67;2.23;;;;;;;9.67;31.08;97577.00;6241708;28;20334;-75
2023/03/12 11:10:31;;;;;;;3.37;2.30;;;;;;;9.57;30.40;97569.66;6242026;28;20235;-76
2023/03/12 11:13:36;;;;;;;4.77;2.43;;;;;;;9.77;30.59;97563.88;6245905;28;20227;-75
2023/03/12 11:16:39;;;;;;;3.10;1.80;;;;;;;10.46;29.80;97564.50;6255249;28;20247;-75
2023/03/12 11:19:41;;;;;;;3.37;2.23;;;;;;;10.39;28.71;97552.41;6239707;28;20319;-74
2023/03/12 11:22:43;;;;;;;2.43;2.13;;;;;;;9.76;29.62;97541.78;6241000;28;20315;-74
2023/03/12 11:26:31;;;;;;;3.83;2.27;;;;;;;9.37;29.97;97566.59;6242781;28;20868;-76
2023/03/12 11:29:38;;;;;;;3.27;2.30;;;;;;;9.33;30.23;97552.97;6239006;28;20244;-74
2023/03/12 11:32:45;;;;;;;3.23;2.23;;;;;;;9.55;30.85;97553.09;6243571;28;20234;-74
2023/03/12 11:36:26;;;;;;;2.77;2.40;;;;;;;9.84;30.70;97543.25;6240169;28;20746;-74
2023/03/12 11:39:54;;;;;;;2.73;2.07;;;;;;;10.03;30.06;97531.31;6240089;28;20285;-74
2023/03/12 11:43:20;;;;;;;4.10;2.20;;;;;;;10.24;29.35;97524.50;6242129;28;20240;-75
2023/03/12 11:47:02;;;;;;;4.00;2.20;;;;;;;9.74;29.41;97532.44;6247476;28;20707;-74
2023/03/12 11:50:28;;;;;;;2.57;2.00;;;;;;;9.81;29.66;97528.59;6240718;28;20233;-75
2023/03/12 11:53:48;;;;;;;2.90;2.20;;;;;;;9.82;29.21;97532.03;6237726;28;20350;-75
2023/03/12 11:56:57;;;;;;;2.37;1.70;;;;;;;9.61;29.13;97476.91;6257421;28;20240;-75
2023/03/12 12:00:11;;;;;;;3.63;2.50;;;;;;;9.78;29.70;97517.59;6240822;28;20222;-76
2023/03/12 12:04:00;;;;;;;3.07;1.80;;;;;;;9.88;29.27;97516.97;6238811;28;20246;-75
2023/03/12 12:07:35;;;;;;;2.87;2.20;;;;;;;9.96;28.75;97501.41;6254953;28;20232;-75
2023/03/12 12:10:58;;;;;;;3.60;1.83;;;;;;;10.29;28.64;97502.47;6240851;28;20702;-75
2023/03/12 12:14:14;;;;;;;2.87;2.30;;;;;;;10.48;28.49;97508.31;6241789;28;20714;-76
2023/03/12 12:17:41;;;;;;;3.43;2.10;;;;;;;9.92;28.71;97499.47;6237991;28;20843;-76
2023/03/12 12:21:06;;;;;;;2.30;1.90;;;;;;;10.14;28.19;97496.88;6247002;28;20224;-76
2023/03/12 12:24:23;;;;;;;4.00;2.40;;;;;;;10.14;28.58;97503.00;6242612;28;20263;-75
2023/03/12 12:27:28;;;;;;;2.03;1.80;;;;;;;10.31;27.51;97495.06;6247655;28;20794;-76
2023/03/12 12:30:40;;;;;;;2.87;1.87;;;;;;;10.56;27.27;97489.28;6238624;28;20235;-75
2023/03/12 12:34:14;;;;;;;2.10;1.90;;;;;;;10.27;28.12;97493.94;6237450;28;20827;-75
2023/03/12 12:37:57;;;;;;;3.13;1.93;;;;;;;10.09;27.01;97486.97;6234991;28;20781;-75
2023/03/12 12:41:22;;;;;;;3.10;1.73;;;;;;;10.20;26.86;97479.97;6214583;28;20226;-75
2023/03/12 12:44:34;;;;;;;2.67;1.70;;;;;;;10.20;26.56;97488.75;6208960;28;20243;-75
2023/03/12 12:47:45;;;;;;;1.83;1.50;;;;;;;10.40;26.22;97474.16;6200396;28;20236;-75
2023/03/12 12:50:50;;;;;;;2.10;1.70;;;;;;;10.32;27.07;97456.72;6198026;28;20250;-75
2023/03/12 12:54:09;;;;;;;2.47;1.77;;;;;;;10.33;28.04;97469.78;6211497;28;20632;-75
2023/03/12 12:57:27;;;;;;;4.00;2.10;;;;;;;10.41;28.85;97465.91;6197642;28;20280;-75
2023/03/12 13:00:38;;;;;;;3.20;2.00;;;;;;;10.42;29.26;97467.50;6207507;28;20238;-75
2023/03/12 13:03:42;;;;;;;4.23;1.60;;;;;;;10.38;29.47;97450.41;6212926;28;20668;-75
2023/03/12 13:07:11;;;;;;;2.87;1.87;;;;;;;10.75;29.18;97476.47;6199514;28;20225;-75
2023/03/12 13:10:38;;;;;;;2.40;1.60;;;;;;;10.87;28.24;97476.34;6206090;28;20223;-75
2023/03/12 13:14:04;;;;;;;2.67;1.73;;;;;;;10.58;27.93;97479.97;6222390;28;20226;-75
2023/03/12 13:17:28;;;;;;;2.63;1.70;;;;;;;10.39;29.38;97499.13;6240239;28;20300;-74
2023/03/12 13:20:35;;;;;;;2.10;1.70;;;;;;;10.12;29.43;97488.34;6240644;28;20226;-74
2023/03/12 13:24:04;;;;;;;1.90;1.70;;;;;;;10.00;30.04;97480.44;6244388;28;20279;-75
2023/03/12 13:27:30;;;;;;;2.00;1.60;;;;;;;10.06;29.90;97495.44;6237430;28;20227;-74
2023/03/12 13:30:32;;;;;;;2.33;1.80;;;;;;;10.02;30.09;97492.47;6244065;28;20231;-74
2023/03/12 13:33:39;;;;;;;3.13;2.07;;;;;;;9.84;30.10;97498.00;6244606;28;20220;-74
2023/03/12 13:36:50;;;;;;;2.20;1.70;;;;;;;9.76;30.35;97496.56;6238245;28;20241;-74
2023/03/12 13:39:53;;;;;;;1.90;1.50;;;;;;;9.77;30.62;97503.50;6236014;28;20827;-75
2023/03/12 13:43:29;;;;;;;3.87;2.00;;;;;;;9.58;29.98;97502.09;6239330;28;20715;-75
2023/03/12 13:47:09;;;;;;;2.80;1.93;;;;;;;9.38;30.19;97510.53;6239151;28;20801;-75
2023/03/12 13:50:16;;;;;;;2.30;1.73;;;;;;;9.28;30.66;97513.81;6221595;28;20299;-76
2023/03/12 13:53:35;;;;;;;3.20;2.23;;;;;;;9.16;31.89;97510.41;6242132;28;20233;-74
2023/03/12 13:56:46;;;;;;;3.30;2.03;;;;;;;9.25;32.17;97506.28;6245360;28;20803;-74
2023/03/12 13:59:50;;;;;;;2.63;1.50;;;;;;;9.22;31.67;97500.66;6240199;28;20594;-74
2023/03/12 14:02:54;;;;;;;4.30;2.07;;;;;;;9.19;31.13;97519.72;6239488;28;20224;-73
2023/03/12 14:05:59;;;;;;;4.90;1.70;;;;;;;9.15;31.63;97519.38;6248281;28;20268;-74
2023/03/12 14:09:09;;;;;;;1.70;1.50;;;;;;;9.15;31.83;97531.88;6240639;28;20255;-73
2023/03/12 14:12:17;;;;;;;3.97;2.07;;;;;;;9.00;31.49;97525.22;6245128;28;20218;-74
2023/03/12 14:15:37;;;;;;;4.17;2.13;;;;;;;9.00;31.71;97519.91;6244684;28;20274;-74
2023/03/12 14:18:44;;;;;;;3.47;1.93;;;;;;;8.69;32.02;97496.41;6233202;28;20230;-74
2023/03/12 14:21:48;;;;;;;2.70;1.80;;;;;;;8.78;32.26;97522.38;6240995;28;20241;-74
2023/03/12 14:24:59;;;;;;;3.33;1.63;;;;;;;8.76;32.43;97532.41;6241873;28;20613;-74
2023/03/12 14:28:12;;;;;;;2.07;1.50;;;;;;;8.80;32.04;97530.09;6242719;28;20376;-74
2023/03/12 14:31:20;;;;;;;1.97;1.40;;;;;;;8.80;31.95;97511.50;6242723;28;20247;-74
2023/03/12 14:34:32;;;;;;;3.87;1.50;;;;;;;8.93;31.50;97531.72;6243259;28;20231;-74
2023/03/12 14:37:41;;;;;;;1.70;1.53;;;;;;;8.93;31.67;97529.84;6224130;28;20785;-74
2023/03/12 14:40:56;;;;;;;2.93;2.00;;;;;;;8.93;32.35;97529.06;6249729;28;20315;-74
2023/03/12 14:44:23;;;;;;;2.40;1.70;;;;;;;8.91;33.51;97526.63;6247359;28;20663;-75
2023/03/12 14:47:26;;;;;;;2.77;1.70;;;;;;;8.77;32.53;97510.16;6245934;28;20231;-74